Airfield :
LOGIN :

Register | Disclaimer

   EN    FR    IT 

 










Legend :    VFR   Marginal VFR   IFR   Intensive IFR   Very Intensive IFR
Visi :
Ceiling :
>= 8 km
>= 3000ft
5 to 8 km
1000 to 3000 ft
1500m to 5 km
500 to 1000 ft
800 to 1500m
200 to 500 ft
< 800m
< 200 ft
Symbols :   Thunderstorms  Fog  Heavy snow  Heavy precipitations  Wind > 20 kt
SIGMETs :     Misc.  Thunderstorms  Icing  Turbulence  Mountain Waves  Volcanic Ashes






- Airport Elevation : 308 ft
- IATA code : POZ


EPPO - Poznan-Lawica

CURRENT METAR :
  • 191200Z 34005KT 280V010 9999 FEW039 18/09 Q1017

EXPIRED METARs :
  • 191130Z 11003KT 9999 FEW039 18/07 Q1017
  • 191100Z 23002KT CAVOK 17/08 Q1017
  • 191030Z 03004KT 350V100 9999 BKN040CB 17/08 Q1017
  • 191000Z 11005KT 080V150 CAVOK 17/09 Q1018
  • 190930Z 08002KT CAVOK 16/07 Q1018

TAF TAF EPPO
Valid from the 19 at 12:00 until the 20 at 12:00 UTC


191130Z 1912/2012 36005KT 9999 SCT030
TEMPO 1912/1924 4000 SHRA BKN025CB
PROB30
TEMPO 1912/1922 VRB15G30KT 2000 TSRAGR BKN009 BKN014CB
TEMPO 1923/2006 4000 BR
TEMPO 2009/2012 SHRA SCT025CB



MET'MAP, your aeronautical weather chart ! - Copyright ORBIFLY December 2007 - Disclaimer

ORBIFLY MET'MAP TEAM :

Programming & Development : Alexandra Zaïnal
Concept & original design : Baudouin d'Aumeries
Assistance for programming : Marc-Olivier Méhu
Technical & hardware support : Manuel Goepfert

Contact : metmap@orbifly.com




SOURCES & CREDITS :

   NOAA